Terminal Aerodrome Forecast
Issued by NWS

Home | Current Version | Previous Version | Text Only | Print | Product List | Glossary On
Versions: 1 2 3 4 5 6 7 8 9 10 11 12 13 14 15 16
000
FTAK31 PAJN 301100
TAFAGY
TAF
PAGY 301130Z 3012/3112 04004KT P6SM SKC
     FM301800 22006KT P6SM SCT200
     FM302300 21014KT P6SM SCT090 BKN130
     FM310100 21011KT P6SM VCSH BKN080 BKN130
     FM310400 21006KT P6SM VCSH BKN070 BKN130
      AMD LTD TO CLD VIS AND WIND=

USA.gov is the U.S. government's official web portal to all federal, state and local government web resources and services.